createdAt,value
2018-06-17T00:00:54.567Z,15.77
2018-06-17T00:03:22.175Z,16.60
2018-06-17T00:05:49.772Z,16.70
2018-06-17T00:08:17.309Z,14.63
2018-06-17T00:10:44.906Z,14.13
2018-06-17T00:13:12.490Z,16.60
2018-06-17T00:15:40.055Z,20.37
2018-06-17T00:18:07.633Z,17.10
2018-06-17T00:20:35.245Z,16.20
2018-06-17T00:23:02.831Z,16.87
2018-06-17T00:25:30.467Z,16.50
2018-06-17T00:27:58.657Z,16.40
2018-06-17T00:30:28.036Z,15.50
2018-06-17T00:32:55.655Z,14.77
2018-06-17T00:35:23.227Z,15.80
2018-06-17T00:37:51.178Z,15.57
2018-06-17T00:40:18.814Z,14.80
2018-06-17T00:42:46.407Z,14.27
2018-06-17T00:45:13.942Z,15.07
2018-06-17T00:47:41.575Z,13.43
2018-06-17T00:50:09.111Z,15.97
2018-06-17T00:52:36.684Z,14.50
2018-06-17T00:55:05.260Z,15.13
2018-06-17T00:57:46.905Z,16.47
2018-06-17T01:00:14.527Z,16.00
2018-06-17T01:02:42.217Z,15.17
2018-06-17T01:05:09.803Z,16.23
2018-06-17T01:07:37.487Z,17.13
2018-06-17T01:10:05.094Z,15.10
2018-06-17T01:12:32.667Z,17.20
2018-06-17T01:15:00.233Z,17.30
2018-06-17T01:17:27.805Z,17.17
2018-06-17T01:19:55.409Z,16.27
2018-06-17T01:22:23.097Z,15.27
2018-06-17T01:24:50.654Z,16.17
2018-06-17T01:27:18.214Z,16.03
2018-06-17T01:29:45.854Z,16.83
2018-06-17T01:32:13.396Z,17.40
2018-06-17T01:34:40.962Z,16.67
2018-06-17T01:37:09.243Z,16.87
2018-06-17T01:39:36.858Z,15.33
2018-06-17T01:42:04.433Z,15.90
2018-06-17T01:44:32.023Z,17.30
2018-06-17T01:46:59.596Z,16.80
2018-06-17T01:49:27.161Z,16.10
2018-06-17T01:51:54.730Z,16.43
2018-06-17T01:54:22.331Z,15.30
2018-06-17T01:56:49.958Z,16.77
2018-06-17T01:59:17.688Z,16.47
2018-06-17T02:01:45.303Z,17.60
2018-06-17T02:04:18.544Z,16.70
2018-06-17T02:06:51.785Z,15.80
2018-06-17T02:09:24.973Z,14.67
2018-06-17T02:11:58.160Z,16.53
2018-06-17T02:14:31.427Z,16.27
2018-06-17T02:16:59.010Z,16.67
2018-06-17T02:19:27.270Z,17.00
2018-06-17T02:21:54.840Z,17.27
2018-06-17T02:24:22.466Z,16.33
2018-06-17T02:26:50.005Z,16.40
2018-06-17T02:29:18.112Z,16.83
2018-06-17T02:31:45.713Z,17.43
2018-06-17T02:34:13.260Z,16.93
2018-06-17T02:36:40.857Z,16.93
2018-06-17T02:39:09.070Z,17.47
2018-06-17T02:41:37.113Z,16.23
2018-06-17T02:44:04.700Z,17.67
2018-06-17T02:46:37.980Z,16.83
2018-06-17T02:49:11.740Z,15.73
2018-06-17T02:51:44.903Z,16.90
2018-06-17T02:54:18.107Z,17.13
2018-06-17T02:56:45.691Z,15.40
2018-06-17T02:59:13.291Z,13.60
2018-06-17T03:01:40.870Z,12.90
2018-06-17T03:04:09.858Z,13.83
2018-06-17T03:06:37.435Z,12.53
2018-06-17T03:09:07.392Z,12.37
2018-06-17T03:11:35.317Z,12.40
2018-06-17T03:14:02.909Z,12.90
2018-06-17T03:16:30.576Z,12.50
2018-06-17T03:18:58.151Z,11.77
2018-06-17T03:21:26.308Z,13.30
2018-06-17T03:26:33.767Z,11.37
2018-06-17T03:29:06.958Z,10.97
2018-06-17T03:31:40.157Z,11.43
2018-06-17T03:34:07.753Z,9.10
2018-06-17T03:36:35.354Z,9.90
2018-06-17T03:39:04.574Z,10.23
2018-06-17T03:41:32.178Z,10.30
2018-06-17T03:43:59.745Z,9.70
2018-06-17T03:46:27.347Z,9.70
2018-06-17T03:48:54.921Z,10.03
2018-06-17T03:51:22.505Z,9.20
2018-06-17T03:53:50.132Z,10.90
2018-06-17T03:56:17.760Z,10.37
2018-06-17T03:58:45.323Z,9.03
2018-06-17T04:01:12.918Z,8.73
2018-06-17T04:03:40.483Z,11.33
2018-06-17T04:06:08.721Z,9.37
2018-06-17T04:08:36.307Z,9.33
2018-06-17T04:11:03.901Z,8.80
2018-06-17T04:13:31.468Z,8.70
2018-06-17T04:15:59.133Z,9.30
2018-06-17T04:18:26.674Z,9.90
2018-06-17T04:20:55.714Z,8.87
2018-06-17T04:23:23.316Z,9.30
2018-06-17T04:25:50.965Z,9.30
2018-06-17T04:28:18.550Z,7.97
2018-06-17T04:30:46.180Z,9.10
2018-06-17T04:33:13.757Z,8.47
2018-06-17T04:35:41.364Z,10.07
2018-06-17T04:38:08.933Z,9.17
2018-06-17T04:40:36.563Z,7.53
2018-06-17T04:43:04.214Z,9.07
2018-06-17T04:45:31.909Z,8.23
2018-06-17T04:47:59.463Z,7.60
2018-06-17T04:50:27.028Z,8.97
2018-06-17T04:52:54.635Z,8.23
2018-06-17T04:55:22.194Z,8.77
2018-06-17T04:57:49.807Z,8.73
2018-06-17T05:00:17.385Z,7.90
2018-06-17T05:02:44.954Z,7.70
2018-06-17T05:05:12.524Z,7.90
2018-06-17T05:07:40.167Z,7.90
2018-06-17T05:10:07.785Z,7.87
2018-06-17T05:12:35.337Z,7.60
2018-06-17T05:15:03.172Z,6.90
2018-06-17T05:17:30.804Z,6.60
2018-06-17T05:19:58.378Z,7.40
2018-06-17T05:22:26.032Z,7.53
2018-06-17T05:24:53.620Z,7.17
2018-06-17T05:27:21.146Z,7.20
2018-06-17T05:29:48.765Z,7.83
2018-06-17T05:32:16.229Z,9.53
2018-06-17T05:34:43.845Z,6.53
2018-06-17T05:37:11.499Z,6.93
2018-06-17T05:39:39.075Z,7.30
2018-06-17T05:42:06.665Z,6.97
2018-06-17T05:44:34.235Z,6.33
2018-06-17T05:47:01.780Z,6.33
2018-06-17T05:49:29.325Z,8.77
2018-06-17T05:51:57.880Z,6.97
2018-06-17T05:54:25.436Z,6.47
2018-06-17T05:56:53.017Z,11.30
2018-06-17T05:59:20.635Z,7.73
2018-06-17T06:01:48.941Z,6.17
2018-06-17T06:04:16.520Z,6.30
2018-06-17T06:06:44.113Z,6.27
2018-06-17T06:09:13.302Z,6.23
2018-06-17T06:11:43.120Z,6.77
2018-06-17T06:14:10.718Z,6.20
2018-06-17T06:16:38.271Z,5.40
2018-06-17T06:19:05.852Z,5.10
2018-06-17T06:21:33.829Z,5.57
2018-06-17T06:24:01.684Z,4.00
2018-06-17T06:26:29.312Z,7.20
2018-06-17T06:28:56.934Z,4.77
2018-06-17T06:31:24.515Z,6.00
2018-06-17T06:33:52.118Z,6.30
2018-06-17T06:36:20.734Z,5.23
2018-06-17T06:38:48.339Z,4.77
2018-06-17T06:41:16.894Z,6.23
2018-06-17T06:43:44.513Z,6.77
2018-06-17T06:46:12.113Z,4.67
2018-06-17T06:48:39.737Z,4.93
2018-06-17T06:51:07.568Z,7.33
2018-06-17T06:53:35.149Z,5.23
2018-06-17T06:56:03.896Z,4.00
2018-06-17T06:58:31.557Z,4.40
2018-06-17T07:00:59.119Z,4.67
2018-06-17T07:03:38.186Z,5.00
2018-06-17T07:06:17.029Z,4.50
2018-06-17T07:08:56.116Z,4.83
2018-06-17T07:11:23.685Z,7.10
2018-06-17T07:13:51.350Z,5.40
2018-06-17T07:16:30.207Z,4.30
2018-06-17T07:18:57.803Z,4.90
2018-06-17T07:21:25.490Z,4.27
2018-06-17T07:23:53.090Z,3.77
2018-06-17T07:26:37.582Z,4.90
2018-06-17T07:29:16.582Z,4.57
2018-06-17T07:31:44.865Z,3.73
2018-06-17T07:34:13.112Z,3.93
2018-06-17T07:36:41.071Z,3.53
2018-06-17T07:39:20.841Z,4.20
2018-06-17T07:41:49.005Z,4.40
2018-06-17T07:44:16.607Z,5.50
2018-06-17T07:46:44.237Z,3.40
2018-06-17T07:49:36.992Z,6.00
2018-06-17T07:52:16.931Z,6.20
2018-06-17T07:54:44.887Z,5.70
2018-06-17T07:57:14.576Z,3.97
2018-06-17T07:59:42.152Z,5.27
2018-06-17T08:02:10.129Z,6.63
2018-06-17T08:04:37.746Z,5.60
2018-06-17T08:07:05.405Z,4.10
2018-06-17T08:09:32.979Z,5.83
2018-06-17T08:12:00.855Z,5.30
2018-06-17T08:14:28.501Z,4.00
2018-06-17T08:16:56.501Z,4.60
2018-06-17T08:19:25.397Z,5.33
2018-06-17T08:21:53.722Z,4.03
2018-06-17T08:24:21.335Z,3.23
2018-06-17T08:26:48.980Z,3.53
2018-06-17T08:29:16.522Z,3.80
2018-06-17T08:31:44.085Z,4.13
2018-06-17T08:34:11.669Z,4.10
2018-06-17T08:36:40.325Z,4.83
2018-06-17T08:39:10.688Z,3.90
2018-06-17T08:41:38.396Z,4.97
2018-06-17T08:44:06.106Z,4.07
2018-06-17T08:46:34.089Z,3.73
2018-06-17T08:49:01.751Z,5.27
2018-06-17T08:51:29.401Z,5.80
2018-06-17T08:53:57.105Z,4.30
2018-06-17T08:56:25.508Z,5.93
2018-06-17T08:58:53.085Z,5.33
2018-06-17T09:01:20.715Z,3.70
2018-06-17T09:03:48.324Z,4.43
2018-06-17T09:06:16.593Z,4.10
2018-06-17T09:08:44.228Z,3.33
2018-06-17T09:11:11.928Z,3.80
2018-06-17T09:13:39.631Z,5.77
2018-06-17T09:16:07.343Z,5.33
2018-06-17T09:18:35.604Z,3.37
2018-06-17T09:21:03.299Z,7.00
2018-06-17T09:23:30.912Z,4.50
2018-06-17T09:25:58.501Z,5.20
2018-06-17T09:28:26.150Z,2.90
2018-06-17T09:30:53.719Z,4.20
2018-06-17T09:33:21.384Z,4.50
2018-06-17T09:35:49.109Z,4.53
2018-06-17T09:38:17.288Z,3.37
2018-06-17T09:40:44.946Z,3.13
2018-06-17T09:43:12.533Z,3.53
2018-06-17T09:45:40.164Z,3.23
2018-06-17T09:48:07.819Z,3.93
2018-06-17T09:50:35.400Z,3.40
2018-06-17T09:53:03.080Z,3.23
2018-06-17T09:55:30.697Z,3.10
2018-06-17T09:57:58.351Z,3.93
2018-06-17T10:00:25.957Z,5.27
2018-06-17T10:02:54.841Z,3.40
2018-06-17T10:05:23.723Z,5.23
2018-06-17T10:07:51.375Z,7.00
2018-06-17T10:10:53.218Z,4.30
2018-06-17T10:13:21.983Z,3.70
2018-06-17T10:15:49.982Z,3.03
2018-06-17T10:18:18.308Z,3.83
2018-06-17T10:20:46.024Z,3.80
2018-06-17T10:23:13.673Z,3.87
2018-06-17T10:25:41.306Z,2.97
2018-06-17T10:28:09.648Z,3.30
2018-06-17T10:30:38.599Z,4.60
2018-06-17T10:33:07.045Z,6.17
2018-06-17T10:35:34.660Z,3.63
2018-06-17T10:38:02.305Z,3.60
2018-06-17T10:40:29.967Z,4.97
2018-06-17T10:42:57.535Z,4.33
2018-06-17T10:45:25.066Z,5.33
2018-06-17T10:47:52.688Z,7.10
2018-06-17T10:50:20.386Z,3.20
2018-06-17T10:52:47.999Z,3.50
2018-06-17T10:55:15.786Z,4.77
2018-06-17T10:57:44.367Z,3.30
2018-06-17T11:00:12.056Z,3.23
2018-06-17T11:02:39.649Z,3.80
2018-06-17T11:05:07.907Z,4.73
2018-06-17T11:07:35.918Z,4.73
2018-06-17T11:10:04.761Z,4.27
2018-06-17T11:12:32.728Z,4.80
2018-06-17T11:15:00.336Z,4.10
2018-06-17T11:17:28.020Z,3.63
2018-06-17T11:19:55.574Z,5.30
2018-06-17T11:22:23.273Z,4.20
2018-06-17T11:24:50.911Z,2.93
2018-06-17T11:27:18.864Z,3.20
2018-06-17T11:29:46.501Z,3.73
2018-06-17T11:32:14.087Z,5.40
2018-06-17T11:34:41.677Z,3.80
2018-06-17T11:37:09.235Z,3.47
2018-06-17T11:39:36.854Z,3.80
2018-06-17T11:42:04.537Z,3.70
2018-06-17T11:44:32.200Z,7.33
2018-06-17T11:46:59.801Z,6.27
2018-06-17T11:49:27.417Z,3.57
2018-06-17T11:51:55.023Z,4.67
2018-06-17T11:54:22.627Z,3.60
2018-06-17T11:56:50.263Z,3.33
2018-06-17T11:59:17.982Z,3.33
2018-06-17T12:01:45.652Z,5.57
2018-06-17T12:04:13.298Z,5.97
2018-06-17T12:06:41.018Z,3.73
2018-06-17T12:09:09.655Z,3.90
2018-06-17T12:11:37.424Z,4.07
2018-06-17T12:14:05.275Z,4.63
2018-06-17T12:16:32.929Z,5.13
2018-06-17T12:19:00.668Z,4.30
2018-06-17T12:21:28.406Z,4.93
2018-06-17T12:23:56.225Z,3.63
2018-06-17T12:26:23.827Z,3.10
2018-06-17T12:28:52.314Z,3.13
2018-06-17T12:31:19.961Z,2.70
2018-06-17T12:33:47.553Z,3.13
2018-06-17T12:36:15.221Z,3.47
2018-06-17T12:38:42.896Z,3.33
2018-06-17T12:41:10.529Z,3.50
2018-06-17T12:43:38.196Z,3.57
2018-06-17T12:46:06.117Z,3.00
2018-06-17T12:48:34.172Z,3.37
2018-06-17T12:51:01.801Z,3.40
2018-06-17T12:53:29.427Z,3.70
2018-06-17T12:55:57.098Z,3.47
2018-06-17T12:58:26.142Z,4.50
2018-06-17T13:00:54.424Z,3.30
2018-06-17T13:03:22.101Z,3.87
2018-06-17T13:05:49.835Z,3.03
2018-06-17T13:08:18.017Z,2.90
2018-06-17T13:10:45.683Z,3.83
2018-06-17T13:13:13.360Z,3.53
2018-06-17T13:15:40.983Z,4.00
2018-06-17T13:18:08.574Z,4.57
2018-06-17T13:20:36.229Z,3.70
2018-06-17T13:23:03.901Z,4.07
2018-06-17T13:25:31.573Z,3.33
2018-06-17T13:27:59.163Z,3.70
2018-06-17T13:30:26.745Z,3.83
2018-06-17T13:32:54.394Z,3.70
2018-06-17T13:35:22.004Z,3.67
2018-06-17T13:37:50.225Z,3.43
2018-06-17T13:40:17.837Z,3.43
2018-06-17T13:42:45.481Z,4.80
2018-06-17T13:45:13.061Z,5.63
2018-06-17T13:47:40.682Z,4.20
2018-06-17T13:50:08.247Z,4.20
2018-06-17T13:52:35.818Z,4.17
2018-06-17T13:55:03.820Z,3.53
2018-06-17T13:57:31.546Z,5.53
2018-06-17T13:59:59.165Z,3.17
2018-06-17T14:02:26.828Z,4.03
2018-06-17T14:04:54.318Z,3.43
2018-06-17T14:07:21.948Z,5.70
2018-06-17T14:09:49.557Z,6.07
2018-06-17T14:12:17.749Z,4.10
2018-06-17T14:14:45.397Z,4.73
2018-06-17T14:17:13.148Z,3.40
2018-06-17T14:19:40.770Z,5.33
2018-06-17T14:22:08.372Z,4.93
2018-06-17T14:24:35.998Z,4.37
2018-06-17T14:27:03.644Z,4.53
2018-06-17T14:29:31.241Z,5.60
2018-06-17T14:31:58.845Z,8.07
2018-06-17T14:34:26.409Z,6.67
2018-06-17T14:36:54.098Z,5.17
2018-06-17T14:39:22.569Z,6.83
2018-06-17T14:41:55.797Z,8.20
2018-06-17T14:46:30.555Z,6.17
2018-06-17T14:49:03.662Z,7.93
2018-06-17T14:51:36.898Z,8.03
2018-06-17T14:54:04.603Z,8.60
2018-06-17T14:56:33.221Z,9.47
2018-06-17T14:59:00.883Z,6.27
2018-06-17T15:01:28.492Z,7.83
2018-06-17T15:03:56.102Z,7.20
2018-06-17T15:06:23.602Z,8.80
2018-06-17T15:08:51.221Z,6.73
2018-06-17T15:11:18.875Z,8.93
2018-06-17T15:13:46.492Z,9.77
2018-06-17T15:16:14.063Z,8.03
2018-06-17T15:18:41.678Z,6.97
2018-06-17T15:21:09.312Z,8.77
2018-06-17T15:23:36.923Z,7.80
2018-06-17T15:26:04.683Z,9.30
2018-06-17T15:28:32.238Z,7.50
2018-06-17T15:31:05.435Z,7.53
2018-06-17T15:33:38.620Z,6.80
2018-06-17T15:36:21.438Z,8.10
2018-06-17T15:38:51.364Z,9.07
2018-06-17T15:41:25.065Z,6.67
2018-06-17T15:43:53.540Z,7.40
2018-06-17T15:46:21.172Z,7.10
2018-06-17T15:48:48.925Z,9.07
2018-06-17T15:51:16.532Z,7.43
2018-06-17T15:53:44.179Z,7.00
2018-06-17T15:56:11.819Z,7.40
2018-06-17T15:58:39.569Z,7.73
2018-06-17T16:01:07.150Z,7.80
2018-06-17T16:03:34.777Z,8.17
2018-06-17T16:06:02.540Z,8.60
2018-06-17T16:08:30.788Z,7.93
2018-06-17T16:10:58.490Z,9.27
2018-06-17T16:13:31.700Z,6.60
2018-06-17T16:16:05.009Z,6.30
2018-06-17T16:18:38.257Z,6.27
2018-06-17T16:21:07.187Z,6.57
2018-06-17T16:23:35.286Z,6.00
2018-06-17T16:26:03.258Z,5.70
2018-06-17T16:28:30.990Z,5.40
2018-06-17T16:30:58.560Z,6.10
2018-06-17T16:33:26.242Z,5.03
2018-06-17T16:35:54.023Z,5.60
2018-06-17T16:38:22.017Z,6.17
2018-06-17T16:40:49.929Z,5.33
2018-06-17T16:43:17.607Z,4.93
2018-06-17T16:45:45.276Z,4.87
2018-06-17T16:48:12.866Z,5.80
2018-06-17T16:50:45.789Z,5.93
2018-06-17T16:53:19.040Z,4.97
2018-06-17T16:55:52.352Z,4.53
2018-06-17T16:58:25.635Z,4.90
2018-06-17T17:00:54.274Z,5.20
2018-06-17T17:03:21.907Z,5.90
2018-06-17T17:05:49.477Z,5.80
2018-06-17T17:08:17.176Z,4.77
2018-06-17T17:10:44.793Z,4.50
2018-06-17T17:13:12.465Z,4.57
2018-06-17T17:15:40.119Z,4.30
2018-06-17T17:18:07.696Z,4.90
2018-06-17T17:20:35.327Z,4.27
2018-06-17T17:23:02.924Z,4.17
2018-06-17T17:25:30.539Z,5.00
2018-06-17T17:27:58.199Z,5.13
2018-06-17T17:30:25.814Z,4.83
2018-06-17T17:32:59.170Z,5.10
2018-06-17T17:37:37.042Z,10.03
2018-06-17T17:40:10.452Z,6.80
2018-06-17T17:42:38.072Z,6.30
2018-06-17T17:45:14.779Z,4.53
2018-06-17T17:47:42.561Z,4.93
2018-06-17T17:50:10.207Z,4.50
2018-06-17T17:52:37.823Z,4.27
2018-06-17T17:55:06.315Z,4.90
2018-06-17T17:57:34.586Z,5.40
2018-06-17T18:00:02.250Z,4.77
2018-06-17T18:02:29.920Z,5.10
2018-06-17T18:04:58.263Z,5.00
2018-06-17T18:07:25.906Z,5.33
2018-06-17T18:09:53.570Z,5.63
2018-06-17T18:12:21.267Z,4.43
2018-06-17T18:14:48.883Z,5.10
2018-06-17T18:17:16.508Z,6.77
2018-06-17T18:19:44.227Z,5.40
2018-06-17T18:22:11.992Z,4.60
2018-06-17T18:24:39.639Z,4.63
2018-06-17T18:27:12.672Z,5.53
2018-06-17T18:29:45.789Z,4.87
2018-06-17T18:32:19.122Z,5.00
2018-06-17T18:34:52.448Z,4.90
2018-06-17T18:37:20.186Z,5.87
2018-06-17T18:39:47.895Z,5.17
2018-06-17T18:42:15.568Z,5.07
2018-06-17T18:44:43.244Z,5.10
2018-06-17T18:47:10.929Z,5.10
2018-06-17T18:49:38.414Z,5.30
2018-06-17T18:52:06.599Z,5.13
2018-06-17T18:54:34.296Z,4.37
2018-06-17T18:57:01.971Z,4.50
2018-06-17T18:59:29.682Z,4.40
2018-06-17T19:01:58.324Z,4.90
2018-06-17T19:04:25.979Z,4.23
2018-06-17T19:06:53.692Z,3.80
2018-06-17T19:09:26.976Z,5.23
2018-06-17T19:12:00.244Z,6.00
2018-06-17T19:14:33.319Z,4.50
2018-06-17T19:17:06.580Z,4.77
2018-06-17T19:19:34.777Z,5.07
2018-06-17T19:22:02.441Z,4.60
2018-06-17T19:24:30.142Z,4.10
2018-06-17T19:26:57.798Z,5.70
2018-06-17T19:29:25.384Z,4.83
2018-06-17T19:31:53.021Z,5.30
2018-06-17T19:34:20.636Z,4.73
2018-06-17T19:36:49.312Z,4.40
2018-06-17T19:39:16.977Z,4.80
2018-06-17T19:41:44.640Z,4.90
2018-06-17T19:44:12.236Z,7.63
2018-06-17T19:46:39.954Z,4.53
2018-06-17T19:49:08.462Z,4.87
2018-06-17T19:51:41.827Z,4.73
2018-06-17T19:54:14.980Z,4.57
2018-06-17T19:56:48.236Z,4.33
2018-06-17T19:59:21.472Z,5.00
2018-06-17T20:01:49.096Z,4.57
2018-06-17T20:04:16.620Z,4.13
2018-06-17T20:06:44.268Z,3.90
2018-06-17T20:09:12.582Z,4.50
2018-06-17T20:11:40.943Z,4.53
2018-06-17T20:14:08.540Z,4.57
2018-06-17T20:16:37.744Z,7.50
2018-06-17T20:19:05.570Z,8.50
2018-06-17T20:21:33.215Z,4.77
2018-06-17T20:24:00.843Z,4.53
2018-06-17T20:26:28.441Z,5.40
2018-06-17T20:28:56.096Z,5.30
2018-06-17T20:31:23.761Z,4.70
2018-06-17T20:33:57.853Z,5.53
2018-06-17T20:36:31.113Z,5.20
2018-06-17T20:39:04.277Z,4.60
2018-06-17T20:41:37.545Z,4.90
2018-06-17T20:44:05.343Z,4.77
2018-06-17T20:46:32.930Z,5.60
2018-06-17T20:49:00.538Z,4.73
2018-06-17T20:51:28.747Z,4.73
2018-06-17T20:53:56.333Z,4.20
2018-06-17T20:56:23.961Z,4.50
2018-06-17T20:58:51.806Z,5.90
2018-06-17T21:01:19.409Z,5.53
2018-06-17T21:03:47.024Z,5.43
2018-06-17T21:06:14.645Z,6.90
2018-06-17T21:08:42.199Z,4.87
2018-06-17T21:11:09.822Z,5.10
2018-06-17T21:13:37.515Z,5.63
2018-06-17T21:16:05.066Z,4.50
2018-06-17T21:18:38.214Z,4.97
2018-06-17T21:21:11.551Z,5.63
2018-06-17T21:23:44.849Z,4.87
2018-06-17T21:26:18.040Z,4.83
2018-06-17T21:28:45.665Z,4.57
2018-06-17T21:31:13.327Z,5.20
2018-06-17T21:33:40.964Z,4.70
2018-06-17T21:36:08.569Z,5.53
2018-06-17T21:38:36.144Z,5.00
2018-06-17T21:41:03.797Z,4.17
2018-06-17T21:43:31.362Z,6.17
2018-06-17T21:45:58.972Z,6.30
2018-06-17T21:48:26.567Z,6.23
2018-06-17T21:50:55.115Z,6.33
2018-06-17T21:53:22.715Z,5.03
2018-06-17T21:55:50.923Z,5.50
2018-06-17T21:58:24.732Z,5.83
2018-06-17T22:00:53.579Z,6.33
2018-06-17T22:03:21.183Z,5.27
2018-06-17T22:05:48.760Z,5.63
2018-06-17T22:08:21.986Z,7.27
2018-06-17T22:10:56.215Z,5.63
2018-06-17T22:13:27.362Z,5.10
2018-06-17T22:16:00.555Z,5.17
2018-06-17T22:18:28.180Z,5.13
2018-06-17T22:20:55.769Z,6.13
2018-06-17T22:23:23.313Z,7.43
2018-06-17T22:25:50.882Z,6.73
2018-06-17T22:28:18.396Z,8.20
2018-06-17T22:30:46.003Z,5.47
2018-06-17T22:33:13.536Z,4.63
2018-06-17T22:35:41.146Z,4.83
2018-06-17T22:38:08.699Z,5.30
2018-06-17T22:40:36.291Z,4.57
2018-06-17T22:43:03.853Z,6.17
2018-06-17T22:45:31.502Z,5.70
2018-06-17T22:47:59.572Z,4.53
2018-06-17T22:50:27.387Z,5.40
2018-06-17T22:54:05.380Z,5.20
2018-06-17T22:56:38.628Z,6.17
2018-06-17T22:59:11.959Z,4.73
2018-06-17T23:01:45.256Z,4.37
2018-06-17T23:04:18.568Z,4.53
2018-06-17T23:06:51.806Z,5.00
2018-06-17T23:09:40.137Z,5.17
2018-06-17T23:12:07.688Z,5.47
2018-06-17T23:14:35.283Z,4.60
2018-06-17T23:17:03.078Z,6.23
2018-06-17T23:19:30.815Z,4.50
2018-06-17T23:21:58.406Z,5.47
2018-06-17T23:24:25.989Z,5.17
2018-06-17T23:26:53.607Z,4.50
2018-06-17T23:29:21.621Z,5.90
2018-06-17T23:31:49.221Z,5.50
2018-06-17T23:34:16.900Z,5.77
2018-06-17T23:36:44.494Z,4.53
2018-06-17T23:39:12.059Z,5.40
2018-06-17T23:41:39.701Z,5.37
2018-06-17T23:44:07.284Z,5.07
2018-06-17T23:46:40.365Z,4.80
2018-06-17T23:49:13.630Z,5.30
2018-06-17T23:51:46.860Z,5.23
2018-06-17T23:54:20.068Z,4.50
2018-06-17T23:56:47.686Z,4.90
2018-06-17T23:59:15.218Z,5.27
